Ohio State University Airport Columbus US
ICAO: KOSU
IATA: OSU
Category: Medium
Scheduled Services: No

Elevation: 905 ft
TransAlt. 18000 ft.

Airport Communications:
COLUMBUS APP/DEP:120.2
ATIS:121.35
CTAF:118.8
GND/CLNC DEL:121.7
TWR:118.8
UNICOM:122.95

KOSU Zoom In..

Runways:

(A) RW 05 length 3562 ft width 100 ft
---- / hdg 54

(B) RW 09L length 2994 ft width 100 ft
---- / hdg 92

(C) RW 09R length 5004 ft width 100 ft
ILS 108.50 / hdg 92

(D) RW 14 length 3049 ft width 100 ft
---- / hdg 141

(E) RW 23 length 3562 ft width 100 ft
---- / hdg 234

(F) RW 27L length 5004 ft width 100 ft
---- / hdg 272

(G) RW 27R length 2994 ft width 100 ft
---- / hdg 272

(H) RW 32 length 3049 ft width 100 ft
---- / hdg 321

Location; KOSU
Day. 22 / Time. 23.53 Zulu
* Altimeter: 29.68
* Temperature: 12° c. 53.6°f.
* Wind from: 160° Speed 14 kn with Gusts up to 23 kn.
Dewpoint: 09° c.
Visibility: 10 Statute Miles.
Clouds: Few 3500 ft.
Clouds: Overcast 4800 ft.

KOSU 222353Z 16014G23KT 10SM FEW035 OVC048 12/09 A2968 RMK AO2 SLP052 60001 T01220094 10139 20122 56019


Wind From 160°
Speed 14 kn.

YouTube Music Video
 
jpsmedia.com for Web Design  worldairports.se 2018   terms of use